Time;durP1;ratioP1;P1;durP2;ratioP2;P2;SDS_P1;SDS_P2;PMS_P1;PMS_P2;Temp;Humidity;BMP_temperature;BMP_pressure;BME280_temperature;BME280_humidity;BME280_pressure;Samples;Min_cycle;Max_cycle;Signal;HPM_P1;HPM_P2
2021/06/25 00:00:41;;;;;;;12.13;10.90;;;17.40;99.90;;;;;;5101191;28;20020;-43
2021/06/25 00:03:07;;;;;;;15.02;12.25;;;17.40;99.90;;;;;;5106131;28;20289;-43
2021/06/25 00:05:32;;;;;;;15.88;12.55;;;17.40;99.90;;;;;;5098496;28;20270;-43
2021/06/25 00:07:58;;;;;;;14.98;12.80;;;17.30;99.90;;;;;;5098729;28;20039;-42
2021/06/25 00:10:24;;;;;;;15.23;12.98;;;17.40;99.90;;;;;;5095451;28;20408;-43
2021/06/25 00:12:49;;;;;;;16.50;11.73;;;17.30;99.90;;;;;;5097746;28;20024;-44
2021/06/25 00:15:15;;;;;;;15.68;12.38;;;17.30;99.90;;;;;;5105576;28;20419;-43
2021/06/25 00:17:41;;;;;;;16.30;11.43;;;17.30;99.90;;;;;;5096904;28;20043;-44
2021/06/25 00:20:08;;;;;;;14.98;12.27;;;17.20;99.90;;;;;;5105229;28;20358;-43
2021/06/25 00:22:35;;;;;;;16.33;11.30;;;17.20;99.90;;;;;;5098131;28;20103;-43
2021/06/25 00:25:01;;;;;;;12.38;10.90;;;17.20;99.90;;;;;;5098697;28;20027;-43
2021/06/25 00:27:26;;;;;;;13.82;11.60;;;17.10;99.90;;;;;;5103099;28;20028;-42
2021/06/25 00:29:52;;;;;;;13.90;11.18;;;17.00;99.90;;;;;;5096812;28;20024;-42
2021/06/25 00:32:17;;;;;;;12.13;10.90;;;17.10;99.90;;;;;;5104894;28;20027;-42
2021/06/25 00:34:43;;;;;;;12.15;10.68;;;17.00;99.90;;;;;;5097947;28;20548;-43
2021/06/25 00:37:08;;;;;;;11.05;9.82;;;17.00;99.90;;;;;;5105608;28;20034;-42
2021/06/25 00:39:35;;;;;;;11.90;10.02;;;17.00;99.90;;;;;;5096936;28;20043;-44
2021/06/25 00:42:01;;;;;;;13.00;10.80;;;17.00;99.90;;;;;;5097945;28;20385;-43
2021/06/25 00:44:26;;;;;;;13.27;10.93;;;16.90;99.90;;;;;;5101551;28;20031;-43
2021/06/25 00:46:52;;;;;;;14.63;10.95;;;16.90;99.90;;;;;;5097734;28;20731;-44
2021/06/25 00:49:17;;;;;;;14.98;10.13;;;16.80;99.90;;;;;;5103831;28;20024;-43
2021/06/25 00:51:44;;;;;;;13.88;11.10;;;16.70;99.90;;;;;;5096014;28;20099;-42
2021/06/25 00:54:12;;;;;;;16.38;11.48;;;16.60;99.90;;;;;;5103853;28;20378;-43
2021/06/25 00:56:38;;;;;;;12.77;10.10;;;16.60;99.90;;;;;;5097005;28;20047;-43
2021/06/25 00:59:04;;;;;;;11.95;10.77;;;16.60;99.90;;;;;;5093990;28;20028;-43
2021/06/25 01:01:30;;;;;;;16.15;10.13;;;16.50;99.90;;;;;;5093846;28;20533;-43
2021/06/25 01:03:56;;;;;;;11.32;9.85;;;16.50;99.90;;;;;;5099985;28;20103;-43
2021/06/25 01:06:23;;;;;;;11.70;9.43;;;16.50;99.90;;;;;;5086821;28;20106;-44
2021/06/25 01:08:48;;;;;;;10.90;9.77;;;16.50;99.90;;;;;;5097990;28;20015;-43
2021/06/25 01:11:14;;;;;;;11.18;9.60;;;16.50;99.90;;;;;;5092571;28;20050;-44
2021/06/25 01:13:41;;;;;;;10.73;9.40;;;16.50;99.90;;;;;;5100437;28;20106;-43
2021/06/25 01:16:06;;;;;;;11.45;8.95;;;16.50;99.90;;;;;;5099057;28;20393;-43
2021/06/25 01:18:33;;;;;;;11.00;8.60;;;16.40;99.90;;;;;;5099434;28;20020;-44
2021/06/25 01:20:59;;;;;;;11.27;8.27;;;16.50;99.90;;;;;;5099087;28;20108;-43
2021/06/25 01:23:26;;;;;;;15.48;9.60;;;16.40;99.90;;;;;;5099218;28;20199;-43
2021/06/25 01:25:52;;;;;;;11.82;9.13;;;16.40;99.90;;;;;;5096661;28;20020;-44
2021/06/25 01:28:17;;;;;;;13.95;9.68;;;16.40;99.90;;;;;;5100122;28;20022;-43
2021/06/25 01:30:45;;;;;;;9.38;8.27;;;16.40;99.90;;;;;;5099773;28;20023;-43
2021/06/25 01:33:13;;;;;;;13.13;9.57;;;16.40;99.90;;;;;;5097357;28;20028;-42
2021/06/25 01:35:39;;;;;;;11.13;9.00;;;16.40;99.90;;;;;;5100331;28;20452;-43
2021/06/25 01:38:06;;;;;;;10.57;9.48;;;16.40;99.90;;;;;;5099324;28;20028;-43
2021/06/25 01:40:32;;;;;;;12.27;9.20;;;16.40;99.90;;;;;;5098548;28;20020;-42
2021/06/25 01:43:02;;;;;;;14.75;9.40;;;16.30;99.90;;;;;;5097599;28;20024;-43
2021/06/25 01:45:30;;;;;;;10.02;8.82;;;16.40;99.90;;;;;;5100417;28;20496;-42
2021/06/25 01:47:56;;;;;;;9.70;8.63;;;16.30;99.90;;;;;;5097093;28;20035;-42
2021/06/25 01:50:24;;;;;;;11.13;8.43;;;16.30;99.90;;;;;;5087501;28;20024;-43
2021/06/25 01:53:01;;;;;;;9.98;8.77;;;16.30;99.90;;;;;;5100251;28;20012;-43
2021/06/25 01:55:28;;;;;;;11.80;8.68;;;16.30;99.90;;;;;;5100124;28;20012;-43
2021/06/25 01:57:53;;;;;;;9.10;8.15;;;16.30;99.90;;;;;;5098588;28;20024;-43
2021/06/25 02:00:20;;;;;;;9.43;7.78;;;16.30;99.90;;;;;;5096094;28;20500;-42
2021/06/25 02:02:46;;;;;;;8.75;6.85;;;16.30;99.90;;;;;;5103056;28;20027;-43
2021/06/25 02:05:13;;;;;;;12.23;8.40;;;16.30;99.90;;;;;;5098182;28;20027;-43
2021/06/25 02:07:39;;;;;;;10.38;7.35;;;16.30;99.90;;;;;;5095188;28;20020;-43
2021/06/25 02:10:07;;;;;;;15.20;7.47;;;16.30;99.90;;;;;;5094461;28;20059;-43
2021/06/25 02:12:35;;;;;;;15.82;9.52;;;16.30;99.90;;;;;;5094922;28;20051;-43
2021/06/25 02:15:06;;;;;;;11.90;8.20;;;16.20;99.90;;;;;;5101844;28;20508;-42
2021/06/25 02:17:32;;;;;;;12.50;8.35;;;16.20;99.90;;;;;;5096402;28;20575;-43
2021/06/25 02:19:57;;;;;;;8.25;7.35;;;16.20;99.90;;;;;;5103220;28;20095;-43
2021/06/25 02:22:23;;;;;;;8.27;6.60;;;16.30;99.90;;;;;;5096272;28;20020;-44
2021/06/25 02:24:48;;;;;;;9.52;7.20;;;16.20;99.90;;;;;;5096592;28;20528;-43
2021/06/25 02:27:14;;;;;;;11.55;7.43;;;16.20;99.90;;;;;;5102288;28;20022;-43
2021/06/25 02:29:40;;;;;;;7.78;6.55;;;16.20;99.90;;;;;;5089791;28;20021;-42
2021/06/25 02:32:06;;;;;;;7.72;6.88;;;16.20;99.90;;;;;;5100624;28;20019;-40
2021/06/25 02:34:31;;;;;;;7.57;6.75;;;16.20;99.90;;;;;;5097691;28;20035;-42
2021/06/25 02:36:58;;;;;;;7.18;6.35;;;16.20;99.90;;;;;;5102576;28;20016;-42
2021/06/25 02:39:23;;;;;;;8.98;7.13;;;16.20;99.90;;;;;;5095442;28;20035;-43
2021/06/25 02:41:49;;;;;;;10.50;7.07;;;16.20;99.90;;;;;;5096171;28;20016;-43
2021/06/25 02:44:14;;;;;;;9.40;7.50;;;16.20;99.90;;;;;;5102074;28;20634;-43
2021/06/25 02:46:40;;;;;;;9.82;7.72;;;16.20;99.90;;;;;;5094406;28;20111;-42
2021/06/25 02:49:06;;;;;;;9.32;7.22;;;16.20;99.90;;;;;;5102431;28;20030;-44
2021/06/25 02:51:31;;;;;;;10.27;8.82;;;16.10;99.90;;;;;;5096002;28;20020;-42
2021/06/25 02:53:57;;;;;;;10.80;8.13;;;16.10;99.90;;;;;;5107331;28;20583;-42
2021/06/25 02:56:22;;;;;;;9.07;8.05;;;16.00;99.90;;;;;;5099478;28;20111;-42
2021/06/25 02:58:48;;;;;;;9.27;7.95;;;16.00;99.90;;;;;;5098048;28;20082;-43
2021/06/25 03:01:13;;;;;;;13.60;8.85;;;15.90;99.90;;;;;;5089391;28;20020;-43
2021/06/25 03:03:39;;;;;;;9.30;8.40;;;15.90;99.90;;;;;;5109827;28;20035;-43
2021/06/25 03:06:05;;;;;;;10.50;9.10;;;15.80;99.90;;;;;;5100680;28;20027;-43
2021/06/25 03:08:31;;;;;;;10.95;9.23;;;15.80;99.90;;;;;;5102807;28;20035;-43
2021/06/25 03:10:56;;;;;;;13.95;9.50;;;15.80;99.90;;;;;;5096108;28;20028;-43
2021/06/25 03:13:22;;;;;;;13.70;10.68;;;15.80;99.90;;;;;;5103823;28;20111;-43
2021/06/25 03:15:48;;;;;;;13.48;9.82;;;15.80;99.90;;;;;;5102053;28;20612;-43
2021/06/25 03:18:14;;;;;;;12.00;10.70;;;15.70;99.90;;;;;;5101616;28;20032;-43
2021/06/25 03:20:40;;;;;;;11.82;10.32;;;15.70;99.90;;;;;;5102327;28;20501;-43
2021/06/25 03:23:06;;;;;;;13.68;9.80;;;15.60;99.90;;;;;;5100527;28;20032;-42
2021/06/25 03:25:32;;;;;;;14.63;10.27;;;15.60;99.90;;;;;;5102673;28;20094;-43
2021/06/25 03:27:58;;;;;;;12.43;11.13;;;15.60;99.90;;;;;;5100300;28;20031;-43
2021/06/25 03:30:25;;;;;;;13.15;11.50;;;15.50;99.90;;;;;;5099676;28;20016;-43
2021/06/25 03:32:51;;;;;;;15.10;11.35;;;15.50;99.90;;;;;;5105909;28;20349;-43
2021/06/25 03:35:16;;;;;;;14.32;12.15;;;15.50;99.90;;;;;;5101608;28;20599;-43
2021/06/25 03:37:42;;;;;;;11.38;10.18;;;15.50;99.90;;;;;;5104115;28;20558;-43
2021/06/25 03:40:10;;;;;;;11.23;10.02;;;15.60;99.90;;;;;;5099710;28;20038;-42
2021/06/25 03:42:37;;;;;;;20.42;12.45;;;15.60;99.90;;;;;;5102614;28;20019;-42
2021/06/25 03:45:05;;;;;;;16.92;12.43;;;15.60;99.90;;;;;;5099839;28;20028;-42
2021/06/25 03:47:31;;;;;;;11.82;10.27;;;15.60;99.90;;;;;;5100523;28;20020;-42
2021/06/25 03:49:56;;;;;;;14.90;11.15;;;15.60;99.90;;;;;;5099955;28;20027;-42
2021/06/25 03:52:22;;;;;;;21.45;11.82;;;15.70;99.90;;;;;;5102183;28;20027;-42
2021/06/25 03:54:47;;;;;;;17.90;13.65;;;15.70;99.90;;;;;;5102627;28;20087;-41
2021/06/25 03:57:13;;;;;;;14.13;11.07;;;15.70;99.90;;;;;;5099418;28;20020;-40
2021/06/25 03:59:38;;;;;;;13.52;11.38;;;15.70;99.90;;;;;;5101538;28;20024;-40
2021/06/25 04:02:09;;;;;;;14.27;11.02;;;15.70;99.90;;;;;;5100637;28;20023;-40
2021/06/25 04:04:35;;;;;;;11.38;10.18;;;15.70;99.90;;;;;;5076249;28;20017;-40
2021/06/25 04:07:01;;;;;;;16.52;12.32;;;15.70;99.90;;;;;;5097313;28;20019;-40
2021/06/25 04:09:27;;;;;;;15.98;12.45;;;15.70;99.90;;;;;;5089295;28;20455;-40
2021/06/25 04:11:53;;;;;;;19.52;12.32;;;15.70;99.90;;;;;;5073612;28;20115;-40
2021/06/25 04:14:19;;;;;;;15.02;11.60;;;15.60;99.90;;;;;;5081606;28;20023;-40
2021/06/25 04:16:44;;;;;;;13.05;11.20;;;15.60;99.90;;;;;;5085879;28;20385;-41
2021/06/25 04:19:09;;;;;;;13.45;11.80;;;15.70;99.90;;;;;;5091586;28;20114;-41
2021/06/25 04:21:35;;;;;;;15.02;11.43;;;15.70;99.90;;;;;;5088779;28;20358;-43
2021/06/25 04:24:00;;;;;;;15.70;11.68;;;15.70;99.90;;;;;;5091514;28;20020;-42
2021/06/25 04:26:26;;;;;;;13.73;11.15;;;15.70;99.90;;;;;;5075146;28;20111;-42
2021/06/25 04:28:51;;;;;;;15.40;11.65;;;15.70;99.90;;;;;;5069542;28;20029;-41
2021/06/25 04:31:17;;;;;;;17.30;12.82;;;15.60;99.90;;;;;;5069348;28;20051;-41
2021/06/25 04:33:43;;;;;;;13.90;11.05;;;15.50;99.90;;;;;;5069400;28;20021;-41
2021/06/25 04:36:08;;;;;;;16.23;12.85;;;15.50;99.90;;;;;;5070362;28;20387;-41
2021/06/25 04:38:34;;;;;;;13.43;10.95;;;15.50;99.90;;;;;;5068176;28;20119;-41
2021/06/25 04:41:00;;;;;;;14.38;12.57;;;15.50;99.90;;;;;;5085421;28;20034;-42
2021/06/25 04:43:25;;;;;;;16.17;11.27;;;15.50;99.90;;;;;;5087682;28;20027;-42
2021/06/25 04:45:51;;;;;;;14.00;11.10;;;15.50;99.90;;;;;;5095915;28;20055;-41
2021/06/25 04:48:16;;;;;;;17.33;11.65;;;15.60;99.90;;;;;;5090427;28;20032;-42
2021/06/25 04:50:43;;;;;;;12.07;10.63;;;15.70;99.90;;;;;;5096236;28;20054;-41
2021/06/25 04:53:09;;;;;;;13.23;10.52;;;15.70;99.90;;;;;;5092676;28;20023;-41
2021/06/25 04:55:41;;;;;;;17.15;11.75;;;15.80;99.90;;;;;;5097749;28;20020;-41
2021/06/25 04:58:09;;;;;;;14.93;11.55;;;15.90;99.90;;;;;;5087010;28;20081;-41
2021/06/25 05:00:34;;;;;;;10.45;8.50;;;15.90;99.90;;;;;;5073407;28;20033;-41
2021/06/25 05:03:00;;;;;;;11.85;10.00;;;16.00;99.90;;;;;;5071039;28;20486;-42
2021/06/25 05:05:25;;;;;;;10.52;8.75;;;16.10;99.90;;;;;;5068397;28;20024;-41
2021/06/25 05:07:52;;;;;;;12.55;9.75;;;16.10;99.90;;;;;;5068355;28;20475;-42
2021/06/25 05:10:17;;;;;;;12.77;10.20;;;16.20;99.90;;;;;;5076582;28;20040;-42
2021/06/25 05:12:43;;;;;;;13.98;10.10;;;16.20;99.90;;;;;;5068739;28;20032;-42
2021/06/25 05:15:09;;;;;;;15.20;10.55;;;16.30;99.90;;;;;;5068094;28;20056;-41
2021/06/25 05:17:35;;;;;;;13.13;10.68;;;16.30;99.90;;;;;;5071857;28;20044;-41
2021/06/25 05:20:01;;;;;;;13.90;10.07;;;16.20;99.90;;;;;;5080771;28;20807;-41
2021/06/25 05:22:27;;;;;;;13.10;10.82;;;16.20;99.90;;;;;;5089717;28;20019;-42
2021/06/25 05:24:52;;;;;;;11.18;9.95;;;16.20;99.90;;;;;;5070790;28;20107;-42
2021/06/25 05:27:18;;;;;;;16.65;11.63;;;16.30;99.90;;;;;;5095976;28;20611;-42
2021/06/25 05:29:43;;;;;;;14.43;10.48;;;16.20;99.90;;;;;;5081764;28;20047;-42
2021/06/25 05:32:09;;;;;;;13.25;8.82;;;16.30;99.90;;;;;;5077809;28;20111;-41
2021/06/25 05:34:34;;;;;;;10.93;8.80;;;16.30;99.90;;;;;;5089223;28;20062;-42
2021/06/25 05:37:00;;;;;;;11.23;8.65;;;16.30;99.90;;;;;;5089408;28;20032;-42
2021/06/25 05:39:25;;;;;;;15.32;9.77;;;16.40;99.90;;;;;;5095001;28;20372;-42
2021/06/25 05:41:51;;;;;;;13.18;9.70;;;16.40;99.90;;;;;;5085035;28;20021;-42
2021/06/25 05:44:18;;;;;;;11.93;9.77;;;16.40;99.90;;;;;;5086774;28;20032;-42
2021/06/25 05:46:43;;;;;;;12.15;9.52;;;16.40;99.90;;;;;;5086697;28;20091;-41
2021/06/25 05:49:09;;;;;;;12.23;9.07;;;16.40;99.90;;;;;;5087977;28;20051;-42
2021/06/25 05:51:34;;;;;;;12.55;9.13;;;16.40;99.90;;;;;;5091287;28;20062;-41
2021/06/25 05:54:00;;;;;;;13.27;9.68;;;16.50;99.90;;;;;;5088783;28;20028;-41
2021/06/25 05:56:25;;;;;;;13.02;10.02;;;16.50;99.90;;;;;;5096641;28;20385;-42
2021/06/25 05:58:51;;;;;;;13.18;9.95;;;16.60;99.90;;;;;;5092204;28;20024;-41
2021/06/25 06:01:16;;;;;;;13.70;10.18;;;16.60;99.90;;;;;;5098713;28;20112;-42
2021/06/25 06:03:42;;;;;;;11.95;9.55;;;16.60;99.90;;;;;;5093982;28;20079;-42
2021/06/25 06:06:07;;;;;;;14.93;9.68;;;16.60;99.90;;;;;;5083478;28;20021;-41
2021/06/25 06:08:33;;;;;;;11.73;9.02;;;16.70;99.90;;;;;;5083809;28;20024;-41
2021/06/25 06:10:58;;;;;;;16.85;9.70;;;16.70;99.90;;;;;;5089489;28;20104;-41
2021/06/25 06:13:24;;;;;;;13.93;9.57;;;16.90;99.90;;;;;;5092849;28;20035;-41
2021/06/25 06:15:51;;;;;;;14.63;10.32;;;16.90;99.90;;;;;;5082781;28;20435;-42
2021/06/25 06:18:30;;;;;;;12.00;10.02;;;17.00;99.90;;;;;;5091124;28;20079;-41
2021/06/25 06:20:56;;;;;;;12.35;9.40;;;17.10;99.90;;;;;;5084540;28;20025;-42
2021/06/25 06:31:39;;;;;;;13.35;10.30;;;17.60;99.90;;;;;;5094752;28;20023;-42
2021/06/25 06:34:10;;;;;;;16.35;8.85;;;17.70;99.90;;;;;;5094363;28;20488;-42
2021/06/25 06:36:42;;;;;;;10.68;8.85;;;17.70;99.90;;;;;;5092565;28;20039;-42
2021/06/25 06:39:08;;;;;;;11.80;8.85;;;17.80;99.90;;;;;;5097398;28;20020;-42
2021/06/25 06:41:34;;;;;;;10.38;8.90;;;17.80;99.90;;;;;;5087470;28;20021;-42
2021/06/25 06:44:00;;;;;;;12.52;8.98;;;17.80;99.90;;;;;;5098928;28;20023;-42
2021/06/25 06:46:26;;;;;;;11.32;8.80;;;17.90;99.90;;;;;;5090614;28;20013;-42
2021/06/25 06:48:52;;;;;;;13.73;8.27;;;18.00;99.90;;;;;;5092681;28;20178;-42
2021/06/25 06:51:19;;;;;;;10.30;7.40;;;18.00;99.90;;;;;;5097182;28;20362;-42
2021/06/25 06:53:45;;;;;;;9.43;6.22;;;18.10;99.90;;;;;;5099023;28;20102;-42
2021/06/25 06:56:16;;;;;;;12.55;6.38;;;18.20;99.90;;;;;;5096876;28;20134;-42
2021/06/25 06:58:42;;;;;;;17.70;8.02;;;18.40;99.90;;;;;;5093572;28;20074;-42
2021/06/25 07:01:09;;;;;;;11.48;7.20;;;18.50;99.90;;;;;;5099904;28;20032;-42
2021/06/25 07:03:34;;;;;;;9.07;6.28;;;18.60;99.90;;;;;;5104563;28;20051;-43
2021/06/25 07:06:00;;;;;;;8.88;6.32;;;18.70;99.90;;;;;;5098951;28;20066;-41
2021/06/25 07:08:26;;;;;;;11.68;7.28;;;18.80;99.90;;;;;;5087991;28;20069;-41
2021/06/25 07:10:51;;;;;;;10.93;8.38;;;18.80;99.90;;;;;;5096121;28;20436;-41
2021/06/25 07:13:17;;;;;;;14.00;8.50;;;18.80;99.90;;;;;;5091115;28;20469;-42
2021/06/25 07:15:43;;;;;;;10.20;7.88;;;18.80;99.90;;;;;;5102735;28;20494;-42
2021/06/25 07:18:08;;;;;;;10.00;8.23;;;18.80;99.90;;;;;;5077182;28;20050;-43
2021/06/25 07:20:34;;;;;;;9.13;7.55;;;18.80;99.90;;;;;;5070347;28;20035;-42
2021/06/25 07:23:00;;;;;;;10.35;8.13;;;19.00;99.90;;;;;;5071890;28;20417;-42
2021/06/25 07:25:26;;;;;;;15.00;9.05;;;19.30;99.90;;;;;;5070918;28;20020;-42
2021/06/25 07:27:52;;;;;;;12.23;8.10;;;19.50;99.90;;;;;;5077696;28;20017;-42
2021/06/25 07:30:18;;;;;;;14.93;9.10;;;19.60;99.90;;;;;;5084741;28;20016;-42
2021/06/25 07:32:43;;;;;;;10.57;7.50;;;19.70;99.90;;;;;;5075071;28;20657;-43
2021/06/25 07:35:09;;;;;;;25.48;10.48;;;19.90;99.90;;;;;;5066869;28;20047;-43
2021/06/25 07:37:35;;;;;;;13.63;9.18;;;20.00;99.90;;;;;;5079801;28;20105;-42
2021/06/25 07:40:00;;;;;;;10.27;7.68;;;20.00;99.90;;;;;;5076636;28;20111;-42
2021/06/25 07:42:26;;;;;;;10.50;8.55;;;20.00;99.90;;;;;;5080208;28;20073;-43
2021/06/25 07:44:52;;;;;;;11.43;7.82;;;20.30;99.90;;;;;;5089233;28;20140;-43
2021/06/25 07:47:18;;;;;;;9.63;8.05;;;20.40;99.90;;;;;;5081889;28;20024;-42
2021/06/25 07:49:44;;;;;;;11.68;7.90;;;20.60;99.90;;;;;;5095847;28;20091;-43
2021/06/25 07:52:10;;;;;;;8.18;6.78;;;20.80;99.90;;;;;;5080033;28;20501;-40
2021/06/25 07:54:36;;;;;;;7.70;6.47;;;20.80;99.90;;;;;;5092272;28;20051;-43
2021/06/25 07:57:02;;;;;;;9.70;7.57;;;21.00;99.90;;;;;;5084042;28;20032;-41
2021/06/25 07:59:28;;;;;;;12.43;7.32;;;21.10;99.90;;;;;;5096027;28;20031;-43
2021/06/25 08:01:53;;;;;;;12.00;8.25;;;21.10;99.90;;;;;;5092874;28;20111;-42
2021/06/25 08:04:19;;;;;;;10.75;8.88;;;21.20;99.90;;;;;;5097476;28;20020;-42
2021/06/25 08:06:45;;;;;;;11.23;8.82;;;21.00;99.90;;;;;;5095285;28;20015;-43
2021/06/25 08:09:10;;;;;;;8.73;7.55;;;21.10;99.90;;;;;;5081319;28;20032;-42
2021/06/25 08:11:36;;;;;;;13.63;9.02;;;21.10;99.90;;;;;;5080224;28;20221;-42
2021/06/25 08:14:02;;;;;;;8.90;6.75;;;21.50;99.00;;;;;;5085179;28;20019;-43
2021/06/25 08:16:28;;;;;;;8.13;6.20;;;21.70;99.90;;;;;;5101335;28;20019;-42
2021/06/25 08:18:57;;;;;;;7.00;6.05;;;22.40;98.90;;;;;;5093037;28;20549;-42
2021/06/25 08:21:26;;;;;;;7.97;7.18;;;23.30;96.80;;;;;;5097139;28;20042;-43
2021/06/25 08:23:52;;;;;;;9.13;6.95;;;23.90;94.00;;;;;;5095055;28;20020;-43
2021/06/25 08:26:18;;;;;;;7.75;5.57;;;24.30;91.70;;;;;;5087912;28;20027;-44
2021/06/25 08:28:43;;;;;;;6.88;5.32;;;23.80;92.40;;;;;;5075693;28;20135;-42
2021/06/25 08:31:09;;;;;;;6.43;5.63;;;24.60;91.60;;;;;;5073092;28;20389;-43
2021/06/25 08:33:34;;;;;;;7.68;6.10;;;25.20;86.20;;;;;;5076823;28;20601;-42
2021/06/25 08:36:00;;;;;;;5.43;4.90;;;25.60;85.70;;;;;;5088678;28;20023;-43
2021/06/25 08:38:25;;;;;;;7.53;5.03;;;25.50;82.60;;;;;;5087127;28;20095;-42
2021/06/25 08:40:51;;;;;;;5.40;4.90;;;25.10;83.10;;;;;;5088262;28;20035;-43
2021/06/25 08:43:16;;;;;;;8.80;5.95;;;24.90;83.60;;;;;;5082737;28;20045;-42
2021/06/25 08:45:43;;;;;;;10.68;5.93;;;25.00;83.10;;;;;;5087215;28;20030;-42
2021/06/25 08:48:09;;;;;;;6.47;5.88;;;25.00;83.90;;;;;;5087508;28;20074;-42
2021/06/25 08:50:39;;;;;;;7.47;6.00;;;25.00;82.60;;;;;;5076384;28;20421;-43
2021/06/25 08:53:05;;;;;;;9.20;6.20;;;25.40;84.90;;;;;;5089702;28;20049;-43
2021/06/25 08:55:31;;;;;;;7.20;4.95;;;25.70;81.90;;;;;;5085236;28;20020;-44
2021/06/25 08:57:56;;;;;;;6.47;5.30;;;25.60;80.30;;;;;;5083023;28;20014;-43
2021/06/25 09:00:27;;;;;;;6.03;4.95;;;25.60;81.00;;;;;;5089044;28;20102;-43
2021/06/25 09:02:52;;;;;;;8.43;7.57;;;25.90;78.70;;;;;;5093226;28;20015;-44
2021/06/25 09:05:21;;;;;;;5.18;4.38;;;25.70;77.90;;;;;;5092461;28;20020;-44
2021/06/25 09:07:46;;;;;;;8.27;6.13;;;26.50;80.10;;;;;;5074240;28;20025;-43
2021/06/25 09:10:13;;;;;;;6.63;5.65;;;27.00;75.70;;;;;;5081217;28;20478;-43
2021/06/25 09:12:40;;;;;;;10.32;6.55;;;27.10;76.50;;;;;;5082539;28;20040;-42
2021/06/25 09:15:15;;;;;;;7.88;5.88;;;27.00;75.00;;;;;;5085330;28;20481;-43
2021/06/25 09:18:05;;;;;;;8.32;7.20;;;26.30;74.60;;;;;;5089347;28;20019;-43
2021/06/25 09:20:39;;;;;;;6.87;6.10;;;25.30;77.40;;;;;;5077910;28;20023;-43
2021/06/25 09:23:15;;;;;;;7.78;6.88;;;24.70;79.10;;;;;;5089265;28;20028;-42
2021/06/25 09:25:56;;;;;;;10.32;7.68;;;24.20;81.70;;;;;;5090449;28;20043;-43
2021/06/25 09:28:29;;;;;;;6.50;4.72;;;24.60;79.70;;;;;;5080607;28;20024;-43
2021/06/25 09:30:56;;;;;;;7.97;4.55;;;25.60;76.50;;;;;;5087944;28;20030;-43
2021/06/25 09:33:22;;;;;;;7.53;5.30;;;26.80;72.00;;;;;;5084518;28;20113;-45
2021/06/25 09:35:56;;;;;;;7.22;5.93;;;27.80;71.80;;;;;;5091611;28;20080;-45
2021/06/25 09:38:39;;;;;;;6.15;5.53;;;28.60;71.00;;;;;;5084121;28;20028;-43
2021/06/25 09:41:19;;;;;;;6.95;4.70;;;28.90;70.90;;;;;;5078139;28;20470;-44
2021/06/25 09:43:55;;;;;;;7.65;5.95;;;29.10;67.60;;;;;;5079537;28;20030;-44
2021/06/25 09:46:35;;;;;;;10.60;6.30;;;28.90;64.10;;;;;;5084259;28;20058;-43
2021/06/25 09:49:04;;;;;;;6.75;6.07;;;28.10;66.30;;;;;;5083822;28;20236;-43
2021/06/25 09:51:30;;;;;;;8.05;6.03;;;26.70;67.20;;;;;;5075720;28;20431;-44
2021/06/25 09:54:14;;;;;;;9.00;7.15;;;26.20;71.50;;;;;;5082865;28;20016;-43
2021/06/25 09:57:06;;;;;;;7.53;6.22;;;26.20;71.60;;;;;;5082732;28;20016;-44
2021/06/25 10:02:21;;;;;;;6.75;5.97;;;27.10;72.00;;;;;;5101757;28;20027;-42
2021/06/25 10:04:47;;;;;;;7.25;5.43;;;27.40;71.40;;;;;;5105942;28;20465;-43
2021/06/25 10:07:15;;;;;;;6.22;5.60;;;27.80;71.60;;;;;;5103413;28;20084;-42
2021/06/25 10:09:43;;;;;;;7.15;5.38;;;27.50;67.40;;;;;;5105478;28;20411;-43
2021/06/25 10:12:12;;;;;;;7.88;7.07;;;27.60;69.90;;;;;;5101945;28;20544;-43
2021/06/25 10:14:39;;;;;;;7.20;6.32;;;28.00;65.80;;;;;;5106628;28;20019;-43
2021/06/25 10:17:05;;;;;;;8.00;6.63;;;28.00;65.20;;;;;;5102489;28;20038;-43
2021/06/25 10:19:32;;;;;;;8.00;7.20;;;28.20;66.60;;;;;;5103397;28;20027;-43
2021/06/25 10:22:02;;;;;;;5.95;4.93;;;28.20;66.50;;;;;;5103902;28;20342;-45
2021/06/25 10:24:32;;;;;;;8.80;5.65;;;28.60;63.00;;;;;;5100341;28;20256;-45
2021/06/25 10:26:58;;;;;;;6.95;4.80;;;28.50;65.90;;;;;;5106196;28;20421;-43
2021/06/25 10:29:25;;;;;;;7.72;7.03;;;27.50;65.20;;;;;;5098007;28;20481;-43
2021/06/25 10:31:51;;;;;;;5.60;4.90;;;27.30;65.60;;;;;;5106431;28;20019;-43
2021/06/25 10:34:17;;;;;;;6.15;5.60;;;27.20;67.60;;;;;;5099230;28;20024;-44
2021/06/25 10:36:43;;;;;;;7.63;5.97;;;26.90;65.90;;;;;;5090779;28;20549;-43
2021/06/25 10:39:11;;;;;;;6.07;5.43;;;26.90;68.10;;;;;;5108288;28;20051;-46
2021/06/25 10:41:50;;;;;;;11.00;6.43;;;27.30;68.30;;;;;;5100239;28;20448;-44
2021/06/25 10:44:34;;;;;;;6.80;5.57;;;28.60;65.30;;;;;;5106288;28;20023;-50
2021/06/25 10:47:29;;;;;;;7.85;5.97;;;29.40;63.40;;;;;;5098001;28;20362;-44
2021/06/25 10:50:08;;;;;;;6.30;5.70;;;30.60;58.30;;;;;;5101463;28;20012;-43
2021/06/25 10:52:38;;;;;;;8.45;5.53;;;31.30;55.70;;;;;;5091901;28;20018;-44
2021/06/25 10:55:05;;;;;;;6.07;5.47;;;29.10;58.30;;;;;;5102431;28;20031;-43
2021/06/25 10:57:37;;;;;;;5.32;4.70;;;28.30;61.00;;;;;;5101414;28;20500;-45
2021/06/25 11:00:05;;;;;;;8.77;6.60;;;27.50;64.50;;;;;;5100121;28;20101;-43
2021/06/25 11:02:45;;;;;;;6.80;5.45;;;26.70;64.00;;;;;;5103628;28;20020;-43
2021/06/25 11:05:34;;;;;;;;;;;26.00;68.50;;;;;;5099272;28;20024;-43
2021/06/25 11:08:18;;;;;;;9.00;6.45;;;25.20;70.40;;;;;;5091050;28;19911;-43
2021/06/25 11:10:56;;;;;;;8.75;6.70;;;24.70;69.90;;;;;;5101424;28;20020;-43
2021/06/25 11:13:25;;;;;;;10.52;6.68;;;24.20;71.00;;;;;;5082976;28;20012;-43
2021/06/25 11:16:04;;;;;;;8.45;6.43;;;24.20;71.10;;;;;;5106653;28;20464;-41
2021/06/25 11:18:31;;;;;;;8.07;6.35;;;24.20;71.30;;;;;;5089482;28;20019;-42
2021/06/25 11:21:01;;;;;;;12.18;8.35;;;23.90;73.40;;;;;;5101203;28;20020;-43
2021/06/25 11:23:38;;;;;;;12.18;9.25;;;23.90;73.90;;;;;;5102803;28;20023;-42
2021/06/25 11:26:19;;;;;;;12.00;9.00;;;24.10;72.40;;;;;;5099865;28;20031;-43
2021/06/25 11:28:46;;;;;;;6.53;5.93;;;24.70;73.90;;;;;;5102277;28;20024;-43
2021/06/25 11:31:16;;;;;;;11.02;8.75;;;25.40;73.60;;;;;;5100517;28;20410;-43
2021/06/25 11:33:53;;;;;;;13.75;10.77;;;25.10;69.80;;;;;;5102629;28;20016;-43
2021/06/25 11:36:49;;;;;;;8.50;7.40;;;25.40;68.90;;;;;;5101652;28;20011;-43
2021/06/25 11:39:34;;;;;;;12.30;8.75;;;25.90;70.40;;;;;;5099196;28;20547;-42
2021/06/25 11:42:06;;;;;;;10.85;9.57;;;26.00;68.10;;;;;;5097413;28;20024;-44
2021/06/25 11:44:38;;;;;;;8.48;7.50;;;25.90;68.40;;;;;;5106819;28;20524;-42
2021/06/25 11:47:17;;;;;;;12.50;9.82;;;25.70;69.90;;;;;;5102306;28;20130;-43
2021/06/25 11:52:25;;;;;;;16.65;11.25;;;25.00;69.80;;;;;;5103447;28;20024;-42
2021/06/25 11:54:56;;;;;;;14.18;11.10;;;24.40;70.70;;;;;;5103958;28;20408;-44
2021/06/25 11:57:24;;;;;;;11.50;10.07;;;24.20;73.20;;;;;;5088335;28;20384;-42
2021/06/25 12:00:14;;;;;;;11.02;7.80;;;24.20;74.90;;;;;;5101489;28;20015;-43
2021/06/25 12:02:43;;;;;;;11.43;9.30;;;24.90;72.80;;;;;;5099877;28;20607;-42
2021/06/25 12:05:10;;;;;;;13.75;10.32;;;25.30;69.10;;;;;;5101323;28;20019;-42
2021/06/25 12:07:35;;;;;;;10.32;9.10;;;25.80;68.90;;;;;;5100040;28;20020;-42
2021/06/25 12:10:03;;;;;;;13.90;10.85;;;25.80;69.40;;;;;;5105329;28;20076;-43
2021/06/25 12:12:31;;;;;;;12.90;10.00;;;25.00;71.40;;;;;;5099799;28;20119;-43
2021/06/25 12:14:59;;;;;;;12.60;10.43;;;24.90;71.80;;;;;;5102611;28;20477;-42
2021/06/25 12:17:48;;;;;;;12.38;10.68;;;25.00;71.60;;;;;;5103373;28;20103;-43
2021/06/25 12:20:21;;;;;;;18.05;12.90;;;25.20;71.90;;;;;;5106474;28;20427;-42
2021/06/25 12:22:57;;;;;;;12.15;9.65;;;25.00;71.60;;;;;;5073249;28;20039;-45
2021/06/25 12:25:33;;;;;;;17.23;10.98;;;24.50;73.30;;;;;;5074654;28;20019;-43
2021/06/25 12:28:06;;;;;;;11.57;10.38;;;24.00;75.20;;;;;;5087053;28;20020;-42
2021/06/25 12:30:31;;;;;;;12.30;8.93;;;23.90;75.90;;;;;;5087110;28;20012;-42
2021/06/25 12:33:02;;;;;;;18.60;13.23;;;23.80;77.60;;;;;;5087355;28;20024;-43
2021/06/25 12:35:30;;;;;;;16.50;12.95;;;23.80;75.00;;;;;;5094237;28;20031;-43
2021/06/25 12:37:55;;;;;;;14.02;10.10;;;23.90;76.30;;;;;;5087865;28;20008;-43
2021/06/25 12:40:41;;;;;;;17.25;11.00;;;24.10;76.40;;;;;;5096851;28;20038;-44
2021/06/25 12:43:09;;;;;;;14.35;9.55;;;24.40;78.40;;;;;;5079865;28;20550;-43
2021/06/25 12:45:50;;;;;;;14.30;9.68;;;24.60;76.30;;;;;;5092150;28;20023;-43
2021/06/25 12:48:20;;;;;;;10.35;8.63;;;24.90;76.50;;;;;;5085674;28;20673;-43
2021/06/25 12:50:46;;;;;;;8.90;8.00;;;25.40;76.40;;;;;;5093235;28;20046;-43
2021/06/25 12:53:22;;;;;;;12.38;9.55;;;25.90;73.90;;;;;;5079722;28;20039;-44
2021/06/25 12:55:48;;;;;;;10.13;7.60;;;25.60;70.00;;;;;;5094651;28;20073;-43